createdAt,value
2022-11-08T00:00:19.929Z,9.97
2022-11-08T00:02:47.693Z,12.77
2022-11-08T00:05:32.978Z,8.00
2022-11-08T00:08:21.597Z,7.43
2022-11-08T00:11:06.784Z,3.53
2022-11-08T00:13:51.830Z,5.30
2022-11-08T00:16:20.836Z,11.37
2022-11-08T00:18:48.484Z,18.70
2022-11-08T00:21:16.175Z,10.60
2022-11-08T00:23:44.792Z,13.70
2022-11-08T00:26:12.476Z,7.50
2022-11-08T00:28:40.138Z,5.00
2022-11-08T00:31:08.386Z,6.70
2022-11-08T00:33:37.480Z,7.27
2022-11-08T00:36:06.082Z,11.40
2022-11-08T00:38:33.794Z,6.70
2022-11-08T00:41:01.482Z,7.57
2022-11-08T00:43:29.141Z,8.27
2022-11-08T00:45:56.782Z,4.90
2022-11-08T00:48:24.653Z,6.33
2022-11-08T00:50:53.818Z,6.53
2022-11-08T00:53:21.462Z,5.93
2022-11-08T00:55:49.140Z,5.57
2022-11-08T00:58:17.169Z,3.87
2022-11-08T01:00:45.273Z,3.60
2022-11-08T01:03:21.817Z,5.13
2022-11-08T01:05:50.069Z,3.50
2022-11-08T01:08:20.840Z,3.70
2022-11-08T01:10:50.118Z,3.87
2022-11-08T01:13:18.859Z,5.70
2022-11-08T01:15:47.222Z,3.03
2022-11-08T01:18:19.841Z,6.43
2022-11-08T01:20:49.932Z,6.07
2022-11-08T01:23:20.404Z,3.30
2022-11-08T01:25:49.520Z,4.80
2022-11-08T01:28:18.411Z,3.93
2022-11-08T01:30:46.839Z,3.60
2022-11-08T01:33:15.773Z,5.90
2022-11-08T01:35:46.283Z,6.47
2022-11-08T01:38:14.570Z,5.30
2022-11-08T01:40:48.336Z,4.60
2022-11-08T01:43:41.235Z,5.83
2022-11-08T01:46:33.743Z,4.90
2022-11-08T01:49:21.768Z,6.33
2022-11-08T01:51:56.013Z,4.87
2022-11-08T01:54:29.039Z,4.63
2022-11-08T01:57:01.197Z,3.20
2022-11-08T01:59:29.649Z,9.20
2022-11-08T02:01:57.973Z,8.83
2022-11-08T02:04:26.027Z,6.10
2022-11-08T02:06:54.601Z,5.87
2022-11-08T02:09:22.276Z,7.90
2022-11-08T02:11:51.017Z,6.83
2022-11-08T02:14:20.270Z,5.33
2022-11-08T02:16:48.117Z,6.20
2022-11-08T02:19:25.224Z,7.20
2022-11-08T02:21:57.178Z,4.83
2022-11-08T02:24:26.231Z,7.10
2022-11-08T02:26:56.180Z,7.00
2022-11-08T02:29:27.159Z,6.43
2022-11-08T02:31:55.414Z,5.23
2022-11-08T02:34:27.013Z,6.07
2022-11-08T02:36:56.639Z,3.53
2022-11-08T02:39:26.098Z,3.93
2022-11-08T02:41:53.823Z,4.93
2022-11-08T02:44:21.550Z,6.27
2022-11-08T02:46:49.179Z,6.53
2022-11-08T02:49:16.892Z,6.30
2022-11-08T02:51:44.557Z,5.47
2022-11-08T02:54:12.389Z,7.20
2022-11-08T02:56:41.452Z,5.10
2022-11-08T02:59:09.157Z,6.67
2022-11-08T03:01:36.961Z,7.40
2022-11-08T03:04:04.992Z,8.90
2022-11-08T03:06:32.780Z,5.53
2022-11-08T03:09:00.695Z,9.40
2022-11-08T03:11:28.929Z,5.03
2022-11-08T03:13:58.175Z,6.50
2022-11-08T03:16:25.923Z,8.80
2022-11-08T03:18:54.817Z,8.40
2022-11-08T03:21:24.955Z,6.70
2022-11-08T03:23:55.081Z,4.50
2022-11-08T03:26:22.789Z,6.80
2022-11-08T03:28:50.514Z,6.77
2022-11-08T03:31:21.720Z,9.07
2022-11-08T03:33:49.434Z,7.53
2022-11-08T03:36:17.237Z,5.20
2022-11-08T03:38:44.972Z,6.40
2022-11-08T03:41:12.704Z,5.63
2022-11-08T03:43:40.482Z,6.93
2022-11-08T03:46:08.430Z,7.60
2022-11-08T03:48:37.489Z,4.67
2022-11-08T03:51:05.448Z,4.37
2022-11-08T03:53:33.142Z,9.03
2022-11-08T03:56:01.022Z,4.90
2022-11-08T03:58:29.092Z,5.57
2022-11-08T04:00:58.191Z,9.27
2022-11-08T04:03:26.044Z,3.13
2022-11-08T04:05:56.084Z,5.07
2022-11-08T04:08:23.779Z,4.57
2022-11-08T04:10:55.032Z,4.50
2022-11-08T04:13:40.552Z,3.57
2022-11-08T04:16:11.794Z,4.33
2022-11-08T04:19:00.451Z,5.07
2022-11-08T04:21:29.524Z,3.97
2022-11-08T04:23:57.212Z,4.87
2022-11-08T04:26:24.959Z,6.10
2022-11-08T04:28:52.668Z,3.87
2022-11-08T04:31:21.507Z,3.33
2022-11-08T04:33:49.238Z,6.10
2022-11-08T04:36:17.901Z,5.83
2022-11-08T04:38:49.225Z,5.90
2022-11-08T04:41:18.670Z,5.17
2022-11-08T04:43:46.574Z,3.93
2022-11-08T04:46:15.798Z,5.10
2022-11-08T04:48:44.004Z,5.03
2022-11-08T04:51:14.250Z,4.00
2022-11-08T04:53:42.338Z,7.23
2022-11-08T04:56:13.370Z,3.03
2022-11-08T04:58:42.701Z,3.20
2022-11-08T05:01:12.282Z,6.73
2022-11-08T05:03:40.065Z,7.63
2022-11-08T05:06:11.141Z,7.70
2022-11-08T05:08:39.234Z,4.60
2022-11-08T05:11:12.944Z,8.50
2022-11-08T05:13:41.828Z,7.17
2022-11-08T05:16:12.988Z,4.87
2022-11-08T05:18:42.133Z,7.53
2022-11-08T05:21:29.524Z,6.13
2022-11-08T05:23:58.151Z,4.53
2022-11-08T05:26:28.287Z,5.93
2022-11-08T05:28:56.153Z,9.43
2022-11-08T05:31:24.955Z,4.10
2022-11-08T05:33:52.914Z,4.27
2022-11-08T05:36:20.975Z,5.80
2022-11-08T05:38:48.741Z,3.10
2022-11-08T05:41:18.838Z,5.63
2022-11-08T05:43:49.559Z,6.07
2022-11-08T05:46:18.272Z,5.63
2022-11-08T05:48:47.784Z,4.50
2022-11-08T05:51:17.447Z,7.70
2022-11-08T05:53:47.135Z,3.47
2022-11-08T05:56:15.136Z,7.80
2022-11-08T05:58:42.825Z,7.23
2022-11-08T06:01:14.486Z,9.10
2022-11-08T06:03:42.466Z,6.73
2022-11-08T06:06:12.548Z,8.03
2022-11-08T06:08:41.877Z,7.30
2022-11-08T06:11:13.503Z,6.03
2022-11-08T06:13:42.055Z,10.73
2022-11-08T06:16:13.200Z,4.30
2022-11-08T06:18:40.957Z,8.87
2022-11-08T06:21:12.006Z,5.60
2022-11-08T06:23:40.911Z,8.00
2022-11-08T06:26:09.191Z,6.30
2022-11-08T06:28:37.079Z,5.30
2022-11-08T06:31:05.812Z,4.63
2022-11-08T06:33:35.165Z,6.70
2022-11-08T06:36:03.016Z,6.83
2022-11-08T06:38:30.782Z,8.63
2022-11-08T06:41:00.228Z,8.37
2022-11-08T06:43:29.986Z,6.20
2022-11-08T06:46:01.288Z,7.60
2022-11-08T06:48:35.087Z,5.77
2022-11-08T06:51:05.344Z,5.37
2022-11-08T06:53:33.748Z,8.40
2022-11-08T06:56:01.845Z,5.90
2022-11-08T06:58:29.759Z,7.80
2022-11-08T07:00:57.501Z,7.47
2022-11-08T07:03:25.284Z,7.17
2022-11-08T07:05:52.913Z,14.03
2022-11-08T07:08:23.879Z,7.20
2022-11-08T07:10:52.126Z,6.53
2022-11-08T07:13:20.254Z,9.90
2022-11-08T07:15:48.501Z,8.03
2022-11-08T07:18:18.082Z,10.50
2022-11-08T07:20:45.913Z,11.93
2022-11-08T07:23:13.669Z,18.90
2022-11-08T07:25:42.930Z,8.13
2022-11-08T07:28:17.474Z,6.40
2022-11-08T07:30:45.788Z,11.57
2022-11-08T07:33:13.855Z,5.97
2022-11-08T07:35:41.674Z,8.03
2022-11-08T07:38:09.430Z,13.50
2022-11-08T07:40:38.826Z,7.60
2022-11-08T07:43:12.728Z,8.40
2022-11-08T07:45:41.129Z,9.43
2022-11-08T07:48:12.595Z,10.20
2022-11-08T07:50:41.725Z,12.63
2022-11-08T07:53:09.977Z,6.70
2022-11-08T07:55:38.158Z,6.77
2022-11-08T07:58:06.573Z,8.30
2022-11-08T08:00:37.408Z,10.23
2022-11-08T08:03:07.555Z,9.50
2022-11-08T08:05:37.239Z,7.60
2022-11-08T08:08:05.785Z,8.53
2022-11-08T08:10:33.809Z,7.97
2022-11-08T08:13:02.197Z,8.27
2022-11-08T08:15:29.907Z,10.73
2022-11-08T08:18:00.803Z,8.17
2022-11-08T08:20:28.665Z,7.37
2022-11-08T08:22:56.349Z,9.60
2022-11-08T08:25:24.483Z,6.20
2022-11-08T08:27:56.620Z,8.13
2022-11-08T08:30:25.468Z,16.13
2022-11-08T08:33:14.631Z,9.20
2022-11-08T08:35:44.046Z,11.83
2022-11-08T08:38:12.751Z,5.90
2022-11-08T08:40:41.221Z,6.00
2022-11-08T08:43:09.054Z,4.57
2022-11-08T08:45:37.750Z,6.23
2022-11-08T08:48:05.934Z,3.83
2022-11-08T08:50:34.594Z,2.70
2022-11-08T08:53:06.157Z,4.80
2022-11-08T08:55:37.359Z,2.77
2022-11-08T08:58:05.739Z,2.27
2022-11-08T09:03:21.683Z,6.10
2022-11-08T09:05:49.655Z,4.80
2022-11-08T09:08:18.760Z,2.67
2022-11-08T09:10:47.108Z,9.23
2022-11-08T09:13:14.980Z,2.00
2022-11-08T09:15:42.841Z,3.53
2022-11-08T09:18:10.643Z,4.57
2022-11-08T09:20:38.314Z,2.43
2022-11-08T09:23:06.028Z,4.20
2022-11-08T09:25:35.109Z,5.30
2022-11-08T09:28:02.797Z,2.60
2022-11-08T09:30:30.581Z,3.20
2022-11-08T09:33:01.388Z,1.90
2022-11-08T09:35:30.610Z,3.17
2022-11-08T09:37:58.637Z,3.27
2022-11-08T09:40:31.623Z,1.97
2022-11-08T09:43:24.683Z,3.30
2022-11-08T09:45:55.944Z,3.53
2022-11-08T09:48:27.787Z,3.20
2022-11-08T09:50:58.417Z,6.97
2022-11-08T09:53:35.345Z,4.23
2022-11-08T09:56:08.908Z,8.63
2022-11-08T09:58:42.257Z,4.63
2022-11-08T10:01:12.971Z,2.87
2022-11-08T10:03:45.546Z,4.30
2022-11-08T10:06:34.369Z,7.53
2022-11-08T10:09:14.906Z,3.17
2022-11-08T10:11:58.825Z,5.13
2022-11-08T10:14:50.579Z,5.83
2022-11-08T10:17:42.502Z,12.03
2022-11-08T10:20:19.878Z,4.07
2022-11-08T10:22:53.491Z,2.90
2022-11-08T10:25:25.553Z,4.97
2022-11-08T10:27:56.939Z,3.90
2022-11-08T10:30:35.440Z,4.10
2022-11-08T10:33:03.825Z,6.90
2022-11-08T10:35:37.556Z,6.70
2022-11-08T10:38:16.539Z,3.97
2022-11-08T10:40:51.948Z,5.10
2022-11-08T10:43:25.815Z,4.93
2022-11-08T10:45:54.941Z,5.37
2022-11-08T10:48:22.813Z,5.30
2022-11-08T10:50:52.570Z,4.77
2022-11-08T10:53:25.453Z,3.87
2022-11-08T10:55:59.729Z,2.70
2022-11-08T10:58:34.352Z,7.03
2022-11-08T11:01:06.834Z,3.90
2022-11-08T11:03:34.719Z,5.50
2022-11-08T11:06:04.182Z,7.70
2022-11-08T11:08:32.547Z,6.27
2022-11-08T11:11:24.981Z,3.23
2022-11-08T11:14:18.191Z,5.90
2022-11-08T11:16:56.599Z,7.80
2022-11-08T11:19:25.032Z,3.00
2022-11-08T11:21:57.579Z,3.60
2022-11-08T11:24:25.999Z,2.30
2022-11-08T11:27:06.276Z,2.67
2022-11-08T11:29:35.513Z,7.27
2022-11-08T11:32:26.542Z,7.07
2022-11-08T11:34:57.460Z,2.80
2022-11-08T11:37:37.200Z,5.90
2022-11-08T11:40:14.758Z,3.70
2022-11-08T11:42:48.776Z,5.27
2022-11-08T11:45:20.494Z,3.23
2022-11-08T11:47:53.385Z,3.33
2022-11-08T11:50:29.586Z,4.90
2022-11-08T11:52:58.912Z,4.23
2022-11-08T11:55:39.923Z,3.53
2022-11-08T11:58:20.072Z,6.77
2022-11-08T12:00:55.568Z,4.13
2022-11-08T12:03:39.897Z,5.20
2022-11-08T12:06:25.617Z,8.97
2022-11-08T12:09:07.539Z,2.60
2022-11-08T12:11:49.688Z,4.53
2022-11-08T12:14:30.514Z,4.90
2022-11-08T12:17:25.438Z,3.40
2022-11-08T12:20:10.498Z,2.40
2022-11-08T12:22:53.457Z,4.77
2022-11-08T12:25:27.541Z,4.80
2022-11-08T12:28:02.290Z,3.63
2022-11-08T12:30:38.534Z,2.77
2022-11-08T12:33:22.304Z,9.67
2022-11-08T12:36:10.740Z,2.50
2022-11-08T12:38:49.061Z,4.80
2022-11-08T12:41:24.936Z,3.80
2022-11-08T12:44:12.399Z,3.77
2022-11-08T12:46:49.955Z,5.17
2022-11-08T12:49:27.940Z,10.63
2022-11-08T12:52:13.056Z,8.50
2022-11-08T12:54:44.670Z,5.13
2022-11-08T12:57:16.331Z,3.33
2022-11-08T12:59:46.604Z,3.50
2022-11-08T13:02:19.489Z,4.10
2022-11-08T13:04:56.062Z,2.73
2022-11-08T13:07:34.105Z,2.40
2022-11-08T13:10:08.787Z,4.60
2022-11-08T13:12:47.801Z,4.10
2022-11-08T13:15:19.210Z,5.67
2022-11-08T13:18:26.135Z,3.90
2022-11-08T13:20:53.855Z,3.73
2022-11-08T13:23:30.304Z,3.40
2022-11-08T13:26:13.773Z,3.60
2022-11-08T13:28:43.265Z,7.57
2022-11-08T13:31:25.591Z,9.33
2022-11-08T13:34:27.171Z,5.27
2022-11-08T13:37:06.249Z,3.30
2022-11-08T13:40:04.139Z,4.60
2022-11-08T13:42:40.634Z,2.63
2022-11-08T13:45:28.419Z,9.90
2022-11-08T13:47:58.584Z,9.00
2022-11-08T13:50:54.150Z,5.40
2022-11-08T13:53:42.428Z,3.20
2022-11-08T13:56:35.351Z,7.97
2022-11-08T13:59:03.064Z,2.30
2022-11-08T14:01:58.762Z,3.00
2022-11-08T14:04:28.672Z,2.70
2022-11-08T14:07:07.363Z,2.47
2022-11-08T14:09:44.517Z,5.37
2022-11-08T14:12:19.042Z,3.10
2022-11-08T14:14:57.644Z,4.30
2022-11-08T14:17:40.667Z,3.20
2022-11-08T14:20:27.630Z,2.90
2022-11-08T14:22:56.010Z,2.70
2022-11-08T14:25:28.934Z,5.23
2022-11-08T14:27:58.809Z,4.03
2022-11-08T14:30:27.436Z,5.37
2022-11-08T14:33:15.413Z,3.87
2022-11-08T14:35:43.345Z,2.73
2022-11-08T14:38:14.870Z,4.33
2022-11-08T14:40:49.850Z,4.63
2022-11-08T14:43:20.132Z,5.20
2022-11-08T14:45:48.515Z,5.10
2022-11-08T14:48:22.396Z,3.90
2022-11-08T14:50:50.146Z,5.50
2022-11-08T14:53:27.164Z,11.93
2022-11-08T14:56:20.783Z,7.20
2022-11-08T14:58:49.982Z,6.77
2022-11-08T15:01:20.372Z,16.20
2022-11-08T15:03:52.915Z,5.77
2022-11-08T15:06:30.484Z,13.07
2022-11-08T15:09:08.129Z,12.40
2022-11-08T15:11:40.989Z,26.53
2022-11-08T15:14:12.735Z,13.70
2022-11-08T15:16:42.471Z,10.07
2022-11-08T15:19:27.678Z,7.17
2022-11-08T15:21:55.403Z,6.87
2022-11-08T15:24:36.715Z,5.70
2022-11-08T15:27:16.574Z,4.60
2022-11-08T15:29:52.271Z,5.50
2022-11-08T15:32:22.319Z,5.00
2022-11-08T15:34:54.053Z,7.53
2022-11-08T15:37:22.660Z,8.90
2022-11-08T15:39:52.058Z,4.80
2022-11-08T15:42:22.526Z,13.63
2022-11-08T15:45:01.388Z,9.80
2022-11-08T15:47:46.081Z,9.50
2022-11-08T15:50:16.880Z,12.47
2022-11-08T15:52:45.836Z,9.63
2022-11-08T15:55:15.754Z,12.13
2022-11-08T15:57:46.728Z,9.80
2022-11-08T16:00:22.133Z,3.47
2022-11-08T16:02:55.865Z,8.57
2022-11-08T16:05:25.160Z,5.33
2022-11-08T16:07:53.887Z,2.70
2022-11-08T16:10:28.017Z,9.63
2022-11-08T16:12:58.754Z,8.57
2022-11-08T16:15:27.476Z,9.80
2022-11-08T16:17:55.333Z,6.87
2022-11-08T16:20:26.931Z,8.63
2022-11-08T16:22:54.990Z,8.70
2022-11-08T16:25:23.306Z,15.43
2022-11-08T16:27:54.340Z,8.07
2022-11-08T16:30:23.458Z,7.40
2022-11-08T16:32:51.668Z,14.43
2022-11-08T16:35:20.171Z,11.43
2022-11-08T16:37:48.413Z,11.93
2022-11-08T16:40:18.438Z,11.00
2022-11-08T16:42:46.266Z,13.30
2022-11-08T16:45:14.380Z,12.93
2022-11-08T16:47:46.538Z,8.47
2022-11-08T16:50:17.358Z,9.17
2022-11-08T16:52:45.214Z,11.80
2022-11-08T16:55:17.615Z,15.47
2022-11-08T16:57:46.667Z,14.87
2022-11-08T17:00:16.377Z,16.03
2022-11-08T17:02:48.914Z,10.03
2022-11-08T17:05:19.530Z,9.97
2022-11-08T17:07:47.253Z,11.93
2022-11-08T17:10:20.905Z,11.63
2022-11-08T17:12:48.962Z,14.43
2022-11-08T17:15:18.133Z,13.60
2022-11-08T17:17:47.961Z,10.50
2022-11-08T17:20:17.401Z,17.70
2022-11-08T17:22:46.639Z,12.47
2022-11-08T17:25:16.817Z,11.80
2022-11-08T17:27:45.270Z,20.37
2022-11-08T17:30:15.816Z,14.27
2022-11-08T17:32:44.253Z,13.00
2022-11-08T17:35:14.681Z,10.53
2022-11-08T17:37:42.535Z,14.00
2022-11-08T17:40:11.213Z,52.57
2022-11-08T17:42:40.012Z,10.23
2022-11-08T17:45:08.927Z,13.27
2022-11-08T17:47:39.131Z,16.77
2022-11-08T17:50:09.278Z,12.53
2022-11-08T17:52:38.613Z,16.13
2022-11-08T17:55:07.333Z,13.80
2022-11-08T17:57:35.140Z,16.63
2022-11-08T18:00:03.768Z,22.20
2022-11-08T18:02:40.260Z,12.93
2022-11-08T18:05:09.300Z,12.47
2022-11-08T18:07:40.801Z,18.03
2022-11-08T18:10:09.936Z,17.57
2022-11-08T18:12:37.900Z,19.63
2022-11-08T18:15:06.570Z,19.63
2022-11-08T18:17:34.315Z,13.77
2022-11-08T18:20:02.249Z,15.33
2022-11-08T18:22:29.994Z,12.83
2022-11-08T18:24:59.071Z,24.83
2022-11-08T18:27:26.992Z,17.60
2022-11-08T18:29:54.665Z,14.67
2022-11-08T18:32:22.417Z,20.87
2022-11-08T18:34:50.163Z,29.80
2022-11-08T18:37:18.012Z,31.27
2022-11-08T18:39:45.712Z,34.17
2022-11-08T18:42:14.793Z,26.37
2022-11-08T18:44:42.536Z,23.50
2022-11-08T18:47:10.322Z,25.87
2022-11-08T18:49:38.093Z,21.63
2022-11-08T18:52:06.167Z,20.00
2022-11-08T18:54:33.990Z,18.80
2022-11-08T18:57:01.678Z,23.33
2022-11-08T18:59:30.836Z,16.67
2022-11-08T19:01:58.814Z,16.07
2022-11-08T19:04:27.888Z,18.17
2022-11-08T19:06:55.707Z,17.70
2022-11-08T19:09:23.532Z,14.23
2022-11-08T19:11:51.414Z,15.23
2022-11-08T19:14:19.635Z,16.50
2022-11-08T19:16:52.042Z,14.97
2022-11-08T19:19:19.853Z,12.47
2022-11-08T19:21:47.600Z,15.20
2022-11-08T19:24:15.483Z,17.53
2022-11-08T19:26:43.329Z,13.80
2022-11-08T19:29:12.315Z,13.13
2022-11-08T19:31:40.038Z,17.33
2022-11-08T19:34:09.920Z,20.80
2022-11-08T19:36:43.126Z,11.60
2022-11-08T19:39:11.524Z,14.87
2022-11-08T19:41:40.041Z,10.37
2022-11-08T19:44:08.288Z,14.23
2022-11-08T19:46:36.477Z,11.47
2022-11-08T19:49:05.721Z,12.30
2022-11-08T19:51:35.628Z,19.07
2022-11-08T19:54:06.004Z,16.97
2022-11-08T19:57:04.193Z,22.70
2022-11-08T19:59:23.468Z,16.53
2022-11-08T20:01:51.409Z,15.37
2022-11-08T20:04:19.500Z,21.17
2022-11-08T20:06:48.664Z,15.70
2022-11-08T20:09:16.617Z,14.17
2022-11-08T20:11:44.796Z,12.87
2022-11-08T20:14:14.015Z,11.23
2022-11-08T20:16:47.824Z,10.83
2022-11-08T20:19:18.932Z,14.70
2022-11-08T20:21:48.169Z,8.00
2022-11-08T20:24:16.406Z,9.87
2022-11-08T20:26:45.088Z,12.80
2022-11-08T20:29:14.440Z,8.87
2022-11-08T20:31:42.762Z,10.20
2022-11-08T20:34:12.775Z,8.63
2022-11-08T20:36:41.540Z,12.83
2022-11-08T20:39:11.489Z,7.60
2022-11-08T20:41:40.936Z,10.00
2022-11-08T20:44:09.825Z,11.47
2022-11-08T20:46:38.577Z,7.63
2022-11-08T20:49:07.015Z,10.00
2022-11-08T20:51:36.836Z,8.60
2022-11-08T20:54:05.125Z,9.27
2022-11-08T20:56:34.217Z,8.80
2022-11-08T20:59:02.992Z,9.50
2022-11-08T21:01:32.704Z,9.63
2022-11-08T21:04:00.964Z,10.00
2022-11-08T21:06:32.998Z,9.87
2022-11-08T21:09:20.855Z,16.60
2022-11-08T21:11:52.359Z,7.00
2022-11-08T21:14:20.479Z,8.30
2022-11-08T21:17:15.113Z,10.00
2022-11-08T21:19:35.778Z,9.23
2022-11-08T21:22:15.846Z,11.17
2022-11-08T21:24:48.613Z,8.17
2022-11-08T21:27:18.135Z,10.40
2022-11-08T21:38:28.472Z,10.03
2022-11-08T21:40:56.496Z,9.07
2022-11-08T21:43:25.551Z,10.00
2022-11-08T21:45:53.308Z,7.10
2022-11-08T21:48:21.601Z,11.83
2022-11-08T21:50:49.486Z,8.20
2022-11-08T21:53:17.250Z,9.33
2022-11-08T21:55:46.026Z,14.47
2022-11-08T21:58:13.759Z,11.30
2022-11-08T22:00:43.032Z,10.23
2022-11-08T22:03:12.063Z,8.17
2022-11-08T22:05:39.783Z,10.73
2022-11-08T22:08:07.461Z,7.07
2022-11-08T22:11:00.805Z,8.00
2022-11-08T22:13:28.444Z,8.60
2022-11-08T22:15:57.568Z,9.73
2022-11-08T22:18:50.252Z,7.03
2022-11-08T22:21:45.264Z,9.00
2022-11-08T22:24:14.889Z,9.33
2022-11-08T22:26:42.926Z,6.17
2022-11-08T22:29:10.993Z,9.20
2022-11-08T22:31:42.439Z,10.37
2022-11-08T22:34:11.037Z,10.17
2022-11-08T22:36:44.888Z,10.77
2022-11-08T22:39:14.385Z,9.07
2022-11-08T22:41:42.549Z,8.07
2022-11-08T22:44:12.338Z,5.43
2022-11-08T22:46:42.604Z,6.10
2022-11-08T22:49:10.814Z,8.57
2022-11-08T22:51:39.463Z,5.13
2022-11-08T22:54:07.570Z,7.57
2022-11-08T22:56:35.933Z,11.60
2022-11-08T22:59:04.287Z,9.77
2022-11-08T23:01:32.115Z,10.67
2022-11-08T23:04:05.635Z,9.27
2022-11-08T23:06:33.440Z,6.13
2022-11-08T23:09:01.218Z,6.17
2022-11-08T23:11:48.211Z,7.90
2022-11-08T23:14:37.128Z,7.20
2022-11-08T23:17:07.493Z,10.97
2022-11-08T23:19:53.862Z,7.93
2022-11-08T23:22:39.480Z,9.07
2022-11-08T23:25:08.060Z,7.10
2022-11-08T23:27:53.200Z,9.97
2022-11-08T23:30:38.283Z,7.90
2022-11-08T23:33:06.798Z,8.10
2022-11-08T23:35:36.278Z,7.20
2022-11-08T23:38:04.266Z,7.00
2022-11-08T23:40:49.465Z,6.73
2022-11-08T23:43:36.082Z,8.63
2022-11-08T23:46:08.759Z,14.20
2022-11-08T23:48:37.228Z,4.57
2022-11-08T23:51:10.570Z,15.50
2022-11-08T23:53:39.821Z,6.17
2022-11-08T23:56:08.202Z,6.23
2022-11-08T23:58:35.953Z,9.60
